Time;durP1;ratioP1;P1;durP2;ratioP2;P2;SDS_P1;SDS_P2;PMS_P1;PMS_P2;Temp;Humidity;BMP_temperature;BMP_pressure;BME280_temperature;BME280_humidity;BME280_pressure;Samples;Min_cycle;Max_cycle;Signal;HPM_P1;HPM_P2
2022/02/27 00:00:54;;;;;;;27.08;9.63;;;;;;;2.64;78.55;103282.19;5040252;28;20017;-75
2022/02/27 00:03:19;;;;;;;25.48;8.35;;;;;;;2.72;78.92;103282.66;5042326;28;20031;-75
2022/02/27 00:05:44;;;;;;;24.00;8.27;;;;;;;2.74;78.52;103270.66;5054735;28;20049;-70
2022/02/27 00:08:10;;;;;;;26.58;7.85;;;;;;;2.61;78.54;103280.63;5054637;28;20464;-69
2022/02/27 00:10:35;;;;;;;29.13;8.95;;;;;;;2.64;78.62;103279.66;5054462;28;20032;-71
2022/02/27 00:13:00;;;;;;;23.30;9.48;;;;;;;2.46;79.26;103273.69;5036791;28;20021;-70
2022/02/27 00:15:26;;;;;;;31.20;8.55;;;;;;;2.46;78.84;103279.63;5054752;28;20458;-70
2022/02/27 00:17:51;;;;;;;24.45;8.10;;;;;;;2.39;79.03;103274.91;5054517;28;20036;-70
2022/02/27 00:20:17;;;;;;;26.27;8.68;;;;;;;2.51;79.40;103287.06;5036051;28;20107;-70
2022/02/27 00:22:43;;;;;;;26.33;8.25;;;;;;;2.46;79.24;103294.13;5053763;28;20033;-70
2022/02/27 00:25:08;;;;;;;25.05;7.90;;;;;;;2.40;79.32;103284.19;5052039;28;20024;-70
2022/02/27 00:27:36;;;;;;;30.92;8.55;;;;;;;2.29;79.60;103289.81;5052064;28;20033;-70
2022/02/27 00:30:02;;;;;;;25.50;8.50;;;;;;;2.39;79.65;103288.50;5051977;28;20029;-71
2022/02/27 00:32:27;;;;;;;25.33;8.23;;;;;;;2.38;78.92;103279.16;5034218;28;20024;-70
2022/02/27 00:34:52;;;;;;;21.52;8.57;;;;;;;2.33;79.27;103283.66;5034600;28;20021;-70
2022/02/27 00:37:18;;;;;;;24.50;8.38;;;;;;;2.39;78.89;103293.59;5051897;28;20029;-70
2022/02/27 00:39:43;;;;;;;28.05;8.10;;;;;;;2.28;79.59;103282.22;5052268;28;20028;-70
2022/02/27 00:42:08;;;;;;;25.65;8.75;;;;;;;2.36;79.08;103280.97;5051735;28;20091;-70
2022/02/27 00:44:34;;;;;;;24.20;8.20;;;;;;;2.25;79.74;103278.09;5051833;28;20417;-70
2022/02/27 00:46:59;;;;;;;35.08;8.95;;;;;;;2.29;79.92;103274.50;5033953;28;20115;-70
2022/02/27 00:49:24;;;;;;;26.98;8.77;;;;;;;2.15;79.28;103262.38;5033712;28;20055;-71
2022/02/27 00:51:49;;;;;;;25.90;8.27;;;;;;;2.13;80.05;103270.97;5033665;28;20082;-71
2022/02/27 00:54:15;;;;;;;22.33;8.32;;;;;;;2.06;80.37;103278.09;5051368;28;20036;-70
2022/02/27 00:56:40;;;;;;;29.75;9.02;;;;;;;2.00;81.14;103269.00;5035561;28;20498;-70
2022/02/27 00:59:07;;;;;;;26.98;8.48;;;;;;;2.03;80.24;103262.94;5053345;28;20028;-71
2022/02/27 01:01:32;;;;;;;29.08;9.23;;;;;;;2.16;80.18;103265.78;5035428;28;20111;-69
2022/02/27 01:03:58;;;;;;;24.17;8.57;;;;;;;1.98;80.94;103267.41;5035440;28;20136;-71
2022/02/27 01:06:23;;;;;;;29.40;9.15;;;;;;;1.88;81.01;103263.66;5053147;28;20045;-71
2022/02/27 01:08:49;;;;;;;28.23;9.02;;;;;;;1.91;81.44;103264.31;5035319;28;20108;-71
2022/02/27 01:11:15;;;;;;;28.63;9.30;;;;;;;1.98;80.90;103262.31;5053290;28;20028;-69
2022/02/27 01:13:40;;;;;;;28.40;9.93;;;;;;;1.78;81.74;103269.16;5035093;28;20033;-70
2022/02/27 01:16:06;;;;;;;27.45;8.60;;;;;;;1.84;81.08;103262.09;5035223;28;20033;-69
2022/02/27 01:18:32;;;;;;;25.25;8.55;;;;;;;1.74;81.54;103270.19;5053187;28;20057;-70
2022/02/27 01:20:58;;;;;;;28.42;9.00;;;;;;;1.69;81.90;103261.91;5035718;28;20025;-71
2022/02/27 01:23:23;;;;;;;23.85;8.80;;;;;;;1.69;81.73;103264.44;5035199;28;20066;-70
2022/02/27 01:25:48;;;;;;;24.73;8.90;;;;;;;1.74;81.77;103254.88;5052678;28;20388;-70
2022/02/27 01:28:15;;;;;;;30.23;9.32;;;;;;;1.79;81.75;103263.16;5051356;28;20048;-71
2022/02/27 01:30:41;;;;;;;26.48;9.23;;;;;;;1.78;80.84;103266.63;5033731;28;20035;-71
2022/02/27 01:33:06;;;;;;;27.35;8.93;;;;;;;1.68;81.67;103267.91;5034601;28;20036;-70
2022/02/27 01:35:31;;;;;;;23.15;9.10;;;;;;;1.75;81.41;103259.06;5034274;28;20037;-70
2022/02/27 01:37:57;;;;;;;24.63;8.60;;;;;;;1.79;81.23;103267.44;5052983;28;20029;-70
2022/02/27 01:40:23;;;;;;;24.30;8.57;;;;;;;1.67;81.30;103260.31;5052922;28;20040;-69
2022/02/27 01:42:49;;;;;;;27.65;8.57;;;;;;;1.73;81.17;103267.72;5034943;28;20060;-70
2022/02/27 01:45:14;;;;;;;23.80;9.20;;;;;;;1.80;80.91;103269.06;5034991;28;20499;-70
2022/02/27 01:47:39;;;;;;;27.08;9.18;;;;;;;1.88;80.28;103271.28;5052796;28;20385;-69
2022/02/27 01:50:07;;;;;;;24.55;8.52;;;;;;;1.95;80.33;103258.19;5038435;28;20123;-70
2022/02/27 01:52:32;;;;;;;24.75;9.48;;;;;;;1.90;80.54;103259.28;5056938;28;20472;-69
2022/02/27 01:54:58;;;;;;;33.63;10.27;;;;;;;1.74;80.84;103261.72;5038730;28;20116;-69
2022/02/27 01:57:24;;;;;;;26.70;9.18;;;;;;;1.72;80.70;103261.75;5056724;28;20028;-69
2022/02/27 01:59:49;;;;;;;33.13;9.20;;;;;;;1.63;81.44;103253.69;5038772;28;20029;-69
2022/02/27 02:02:15;;;;;;;24.13;8.55;;;;;;;1.59;81.12;103247.91;5038830;28;20025;-69
2022/02/27 02:04:41;;;;;;;22.20;9.57;;;;;;;1.53;81.06;103258.38;5038519;28;20049;-70
2022/02/27 02:07:07;;;;;;;29.70;8.52;;;;;;;1.57;81.82;103257.34;5056847;28;20376;-69
2022/02/27 02:09:34;;;;;;;30.08;9.32;;;;;;;1.41;82.41;103267.41;5038449;28;20048;-71
2022/02/27 02:12:00;;;;;;;24.20;9.10;;;;;;;1.43;81.86;103249.47;5056503;28;20024;-70
2022/02/27 02:14:25;;;;;;;31.30;9.20;;;;;;;1.46;82.39;103262.91;5056377;28;20028;-71
2022/02/27 02:16:52;;;;;;;30.92;8.90;;;;;;;1.42;81.67;103258.03;5056346;28;20578;-71
2022/02/27 02:19:20;;;;;;;21.70;8.38;;;;;;;1.41;82.37;103252.09;5056286;28;20024;-70
2022/02/27 02:21:48;;;;;;;28.27;9.38;;;;;;;1.32;82.68;103267.75;5038361;28;20048;-71
2022/02/27 02:24:14;;;;;;;24.23;8.48;;;;;;;1.32;82.92;103263.53;5056146;28;20021;-70
2022/02/27 02:26:41;;;;;;;26.92;8.93;;;;;;;1.35;82.41;103254.88;5056185;28;20024;-70
2022/02/27 02:29:09;;;;;;;29.55;9.80;;;;;;;1.17;82.93;103261.59;5038232;28;20486;-70
2022/02/27 02:31:35;;;;;;;25.02;9.07;;;;;;;1.24;82.97;103249.47;5055955;28;20147;-70
2022/02/27 02:34:04;;;;;;;30.63;9.95;;;;;;;1.21;82.56;103250.41;5038284;28;20124;-70
2022/02/27 02:36:29;;;;;;;24.58;9.55;;;;;;;1.03;83.09;103249.44;5038166;28;20029;-70
2022/02/27 02:38:54;;;;;;;22.40;9.05;;;;;;;1.21;83.51;103249.56;5038102;28;20027;-70
2022/02/27 02:41:19;;;;;;;24.67;8.90;;;;;;;1.17;83.12;103246.31;5037973;28;20017;-70
2022/02/27 02:43:48;;;;;;;25.45;9.10;;;;;;;1.10;83.42;103244.94;5055798;28;20100;-69
2022/02/27 02:46:13;;;;;;;26.35;8.63;;;;;;;1.06;83.14;103245.94;5037929;28;20033;-70
2022/02/27 02:48:38;;;;;;;23.10;8.93;;;;;;;1.01;83.45;103245.34;5055790;28;20492;-69
2022/02/27 02:51:04;;;;;;;26.88;9.15;;;;;;;1.07;83.90;103240.81;5055796;28;20021;-69
2022/02/27 02:53:36;;;;;;;26.13;8.98;;;;;;;1.26;82.90;103240.84;5037720;28;20048;-70
2022/02/27 02:56:05;;;;;;;22.85;8.57;;;;;;;1.13;82.67;103239.72;5038007;28;20036;-70
2022/02/27 02:58:32;;;;;;;26.63;8.50;;;;;;;1.00;82.83;103231.75;5055539;28;20021;-69
2022/02/27 03:00:57;;;;;;;22.63;8.65;;;;;;;0.74;84.20;103232.00;5054987;28;20070;-70
2022/02/27 03:03:23;;;;;;;24.98;9.40;;;;;;;0.89;84.02;103226.28;5055416;28;20456;-70
2022/02/27 03:05:48;;;;;;;22.75;9.02;;;;;;;0.92;83.66;103228.69;5055360;28;20483;-70
2022/02/27 03:08:14;;;;;;;22.67;7.93;;;;;;;0.90;83.21;103215.22;5037484;28;20032;-70
2022/02/27 03:10:39;;;;;;;24.17;8.43;;;;;;;1.04;83.65;103229.94;5055339;28;20028;-70
2022/02/27 03:13:04;;;;;;;26.70;8.35;;;;;;;0.98;83.04;103225.06;5055082;28;20158;-69
2022/02/27 03:15:29;;;;;;;28.38;8.60;;;;;;;1.00;83.31;103221.56;5037251;28;20043;-72
2022/02/27 03:17:55;;;;;;;21.92;8.57;;;;;;;1.05;82.85;103221.38;5055222;28;20025;-69
2022/02/27 03:20:20;;;;;;;30.73;8.60;;;;;;;1.14;83.00;103226.06;5055135;28;20017;-69
2022/02/27 03:22:45;;;;;;;21.58;8.77;;;;;;;1.20;82.55;103230.09;5055206;28;20021;-69
2022/02/27 03:25:10;;;;;;;23.65;8.10;;;;;;;0.97;82.79;103225.97;5055137;28;20393;-69
2022/02/27 03:27:36;;;;;;;23.73;8.90;;;;;;;1.06;83.13;103220.47;5055055;28;20025;-70
2022/02/27 03:30:03;;;;;;;25.10;8.75;;;;;;;1.03;83.32;103216.34;5054963;28;20128;-70
2022/02/27 03:32:28;;;;;;;22.25;8.88;;;;;;;0.66;83.55;103189.03;5054841;28;20507;-69
2022/02/27 03:34:53;;;;;;;26.58;8.48;;;;;;;0.91;83.35;103216.88;5037062;28;20028;-69
2022/02/27 03:37:19;;;;;;;22.50;8.55;;;;;;;0.93;82.99;103214.25;5036854;28;20025;-69
2022/02/27 03:39:44;;;;;;;24.05;8.48;;;;;;;0.78;83.53;103214.00;5037221;28;20029;-69
2022/02/27 03:42:10;;;;;;;31.58;10.40;;;;;;;0.79;83.70;103210.56;5055022;28;20029;-69
2022/02/27 03:44:35;;;;;;;20.98;7.75;;;;;;;0.79;83.57;103202.09;5054700;28;20070;-69
2022/02/27 03:47:00;;;;;;;22.15;7.72;;;;;;;0.91;83.14;103206.69;5054698;28;20469;-69
2022/02/27 03:49:26;;;;;;;21.92;7.72;;;;;;;0.62;83.37;103201.06;5054570;28;20379;-69
2022/02/27 03:51:51;;;;;;;27.67;8.63;;;;;;;0.81;84.02;103215.59;5054535;28;20032;-70
2022/02/27 03:54:17;;;;;;;26.83;8.63;;;;;;;0.88;83.16;103217.00;5054428;28;20502;-69
2022/02/27 03:56:43;;;;;;;20.65;7.85;;;;;;;0.77;83.10;103208.97;5054552;28;20063;-70
2022/02/27 03:59:08;;;;;;;25.23;8.48;;;;;;;0.55;84.38;103211.59;5054475;28;20060;-69
2022/02/27 04:01:33;;;;;;;21.45;7.53;;;;;;;0.63;84.23;103209.53;5036590;28;20025;-69
2022/02/27 04:04:00;;;;;;;20.02;7.65;;;;;;;0.73;84.22;103212.53;5054351;28;20017;-69
2022/02/27 04:06:26;;;;;;;24.17;7.70;;;;;;;0.80;83.24;103214.75;5036390;28;20126;-70
2022/02/27 04:08:51;;;;;;;25.38;7.80;;;;;;;0.67;83.80;103219.53;5036147;28;20434;-70
2022/02/27 04:11:16;;;;;;;25.63;7.80;;;;;;;0.72;83.59;103216.81;5052697;28;20064;-70
2022/02/27 04:13:41;;;;;;;25.60;7.82;;;;;;;0.67;83.70;103218.72;5034609;28;20020;-72
2022/02/27 04:16:07;;;;;;;24.42;8.07;;;;;;;0.60;83.52;103214.75;5053964;28;20017;-70
2022/02/27 04:18:32;;;;;;;29.25;8.13;;;;;;;0.64;84.16;103214.56;5036200;28;20039;-70
2022/02/27 04:20:58;;;;;;;22.33;7.80;;;;;;;0.60;83.95;103213.03;5054496;28;20528;-71
2022/02/27 04:23:23;;;;;;;24.50;7.50;;;;;;;0.65;84.58;103207.75;5053995;28;20487;-71
2022/02/27 04:25:48;;;;;;;19.90;7.07;;;;;;;0.77;83.04;103208.97;5036025;28;20052;-70
2022/02/27 04:28:14;;;;;;;18.92;7.28;;;;;;;0.62;84.09;103212.97;5036028;28;20024;-70
2022/02/27 04:30:39;;;;;;;23.63;7.97;;;;;;;0.56;83.94;103208.97;5035863;28;20033;-71
2022/02/27 04:33:04;;;;;;;21.48;7.90;;;;;;;0.69;83.43;103209.28;5035872;28;20510;-70
2022/02/27 04:35:30;;;;;;;23.05;7.65;;;;;;;0.76;83.54;103204.78;5035553;28;20082;-73
2022/02/27 04:37:55;;;;;;;20.80;7.53;;;;;;;0.53;83.04;103208.25;5053579;28;20025;-71
2022/02/27 04:40:21;;;;;;;20.38;7.75;;;;;;;0.58;83.78;103201.28;5053647;28;20036;-70
2022/02/27 04:42:46;;;;;;;22.50;7.65;;;;;;;0.53;83.56;103198.91;5035705;28;20025;-71
2022/02/27 04:45:12;;;;;;;26.05;7.50;;;;;;;0.50;84.25;103204.13;5035705;28;20166;-70
2022/02/27 04:47:37;;;;;;;28.92;7.43;;;;;;;0.42;84.49;103201.06;5053453;28;20031;-70
2022/02/27 04:50:06;;;;;;;28.83;8.07;;;;;;;0.55;83.35;103209.03;5053587;28;20048;-69
2022/02/27 04:52:31;;;;;;;24.27;8.07;;;;;;;0.45;83.79;103199.22;5053410;28;20033;-70
2022/02/27 04:54:57;;;;;;;21.00;7.88;;;;;;;0.42;83.98;103195.97;5035537;28;20531;-70
2022/02/27 04:57:22;;;;;;;22.77;7.60;;;;;;;0.40;84.35;103195.19;5053477;28;20028;-71
2022/02/27 04:59:47;;;;;;;23.75;7.38;;;;;;;0.42;83.97;103188.34;5053422;28;20108;-70
2022/02/27 05:02:13;;;;;;;19.05;6.90;;;;;;;0.44;84.00;103202.66;5035523;28;20029;-70
2022/02/27 05:04:38;;;;;;;18.75;6.60;;;;;;;0.18;84.09;103164.72;5053064;28;20103;-71
2022/02/27 05:07:04;;;;;;;21.58;7.78;;;;;;;0.42;85.15;103191.69;5053603;28;20032;-70
2022/02/27 05:09:30;;;;;;;22.83;7.90;;;;;;;0.32;84.17;103185.34;5053259;28;20110;-70
2022/02/27 05:11:56;;;;;;;14.70;7.20;;;;;;;0.37;84.90;103187.69;5053211;28;20017;-70
2022/02/27 05:14:21;;;;;;;21.23;6.63;;;;;;;0.36;84.75;103193.66;5035551;28;20051;-70
2022/02/27 05:16:47;;;;;;;18.15;6.70;;;;;;;0.36;84.60;103183.50;5053101;28;20033;-70
2022/02/27 05:19:13;;;;;;;19.13;6.95;;;;;;;0.33;84.60;103179.34;5035327;28;20025;-70
2022/02/27 05:21:39;;;;;;;20.45;6.82;;;;;;;0.32;84.40;103177.72;5053194;28;20107;-70
2022/02/27 05:24:05;;;;;;;18.60;6.97;;;;;;;0.38;84.13;103186.81;5052692;28;20058;-70
2022/02/27 05:26:30;;;;;;;18.92;6.55;;;;;;;0.25;84.27;103185.63;5035109;28;20480;-70
2022/02/27 05:28:56;;;;;;;26.55;7.55;;;;;;;0.31;84.84;103181.13;5035166;28;20113;-70
2022/02/27 05:31:21;;;;;;;23.13;7.35;;;;;;;0.27;84.41;103182.16;5052938;28;20451;-70
2022/02/27 05:33:46;;;;;;;21.85;6.65;;;;;;;0.40;84.18;103182.47;5053051;28;20025;-70
2022/02/27 05:36:12;;;;;;;19.25;6.32;;;;;;;0.32;84.24;103182.78;5052901;28;20411;-70
2022/02/27 05:38:37;;;;;;;17.05;7.43;;;;;;;0.15;84.91;103185.19;5035058;28;20146;-71
2022/02/27 05:41:03;;;;;;;15.63;6.60;;;;;;;0.17;84.74;103163.88;5035082;28;20112;-71
2022/02/27 05:43:28;;;;;;;17.20;6.55;;;;;;;0.27;85.16;103182.16;5052829;28;20049;-71
2022/02/27 05:45:53;;;;;;;21.48;6.90;;;;;;;0.29;84.87;103182.06;5034985;28;20025;-72
2022/02/27 05:48:19;;;;;;;18.15;6.28;;;;;;;0.25;84.92;103185.63;5052853;28;20025;-71
2022/02/27 05:50:44;;;;;;;22.95;7.47;;;;;;;0.31;84.81;103180.28;5052745;28;20471;-71
2022/02/27 05:53:09;;;;;;;25.10;6.70;;;;;;;0.34;84.18;103177.63;5034934;28;20025;-70
2022/02/27 05:55:35;;;;;;;17.02;6.32;;;;;;;0.41;83.75;103187.50;5034909;28;20388;-70
2022/02/27 05:58:01;;;;;;;21.63;7.07;;;;;;;0.35;83.81;103185.22;5052810;28;20029;-70
2022/02/27 06:00:26;;;;;;;18.52;6.78;;;;;;;0.36;83.91;103189.41;5053043;28;20029;-70
2022/02/27 06:02:52;;;;;;;17.92;6.85;;;;;;;0.48;83.75;103184.72;5052750;28;20033;-70
2022/02/27 06:05:17;;;;;;;18.42;6.28;;;;;;;0.41;83.48;103186.69;5052484;28;20098;-70
2022/02/27 06:07:42;;;;;;;18.33;6.10;;;;;;;0.38;84.24;103194.44;5034855;28;20033;-69
2022/02/27 06:10:08;;;;;;;21.55;6.20;;;;;;;0.34;84.03;103190.34;5052570;28;20028;-70
2022/02/27 06:12:33;;;;;;;17.70;6.78;;;;;;;0.30;84.72;103194.75;5034723;28;20059;-70
2022/02/27 06:14:58;;;;;;;17.02;6.28;;;;;;;0.38;83.97;103194.44;5052566;28;20025;-70
2022/02/27 06:17:24;;;;;;;17.15;6.28;;;;;;;0.44;83.52;103202.66;5052811;28;20036;-70
2022/02/27 06:19:50;;;;;;;13.82;6.35;;;;;;;0.35;83.59;103200.47;5052587;28;20056;-70
2022/02/27 06:22:15;;;;;;;20.00;6.70;;;;;;;0.40;84.61;103203.66;5034561;28;20114;-70
2022/02/27 06:24:40;;;;;;;17.27;6.15;;;;;;;0.37;83.61;103195.31;5034589;28;20021;-70
2022/02/27 06:27:06;;;;;;;18.60;6.53;;;;;;;0.35;83.46;103195.38;5034679;28;20029;-71
2022/02/27 06:29:31;;;;;;;18.10;6.22;;;;;;;0.39;83.82;103198.63;5052522;28;20533;-70
2022/02/27 06:31:56;;;;;;;16.05;5.90;;;;;;;0.39;83.64;103196.09;5052457;28;20021;-70
2022/02/27 06:34:21;;;;;;;13.45;5.90;;;;;;;0.43;83.77;103200.16;5034434;28;20021;-70
2022/02/27 06:36:47;;;;;;;17.65;5.72;;;;;;;0.43;83.39;103195.06;5055160;28;20029;-70
2022/02/27 06:39:12;;;;;;;20.08;6.80;;;;;;;0.40;83.42;103205.38;5038092;28;20021;-71
2022/02/27 06:41:37;;;;;;;14.20;5.82;;;;;;;0.42;83.41;103196.78;5038041;28;20021;-70
2022/02/27 06:44:03;;;;;;;20.17;6.38;;;;;;;0.15;83.70;103170.75;5057018;28;20025;-74
2022/02/27 06:46:29;;;;;;;22.10;5.75;;;;;;;0.41;83.21;103195.13;5063611;28;20033;-73
2022/02/27 06:48:55;;;;;;;17.08;5.90;;;;;;;0.54;82.80;103200.56;5058815;28;20025;-70
2022/02/27 06:51:20;;;;;;;14.50;5.70;;;;;;;0.31;83.25;103170.94;5057932;28;20108;-72
2022/02/27 06:53:45;;;;;;;15.70;6.13;;;;;;;0.62;83.28;103202.78;5037848;28;20032;-70
2022/02/27 06:56:10;;;;;;;13.00;5.45;;;;;;;0.78;82.50;103198.75;5055674;28;20029;-70
2022/02/27 06:58:36;;;;;;;17.55;5.95;;;;;;;0.42;83.23;103206.97;5055633;28;20357;-72
2022/02/27 07:01:01;;;;;;;17.63;6.43;;;;;;;0.54;82.94;103210.72;5055547;28;20545;-69
2022/02/27 07:03:26;;;;;;;14.52;6.30;;;;;;;0.33;83.97;103196.34;5055681;28;20028;-69
2022/02/27 07:05:53;;;;;;;18.35;6.20;;;;;;;0.63;83.42;103217.16;5055452;28;20045;-69
2022/02/27 07:08:19;;;;;;;17.90;6.32;;;;;;;0.65;82.59;103195.03;5055573;28;20396;-71
2022/02/27 07:10:44;;;;;;;23.30;6.50;;;;;;;0.77;82.29;103211.50;5037493;28;20116;-70
2022/02/27 07:13:10;;;;;;;16.95;6.00;;;;;;;0.88;82.03;103217.81;5055207;28;20025;-70
2022/02/27 07:15:35;;;;;;;20.23;5.88;;;;;;;0.95;81.84;103195.50;5055324;28;20472;-70
2022/02/27 07:18:02;;;;;;;19.92;6.03;;;;;;;0.97;80.95;103210.69;5055241;28;20024;-70
2022/02/27 07:20:27;;;;;;;15.43;6.07;;;;;;;0.93;81.23;103204.91;5037550;28;20025;-70
2022/02/27 07:22:52;;;;;;;22.13;6.20;;;;;;;0.79;81.50;103195.28;5054973;28;20450;-70
2022/02/27 07:25:18;;;;;;;21.88;5.60;;;;;;;0.97;81.68;103210.69;5037246;28;20067;-70
2022/02/27 07:27:43;;;;;;;17.95;5.80;;;;;;;1.03;81.54;103210.44;5055091;28;20033;-70
2022/02/27 07:30:09;;;;;;;18.10;5.82;;;;;;;1.13;82.12;103209.97;5055146;28;20029;-70
2022/02/27 07:32:34;;;;;;;15.55;6.05;;;;;;;1.18;80.84;103212.34;5055101;28;20436;-69
2022/02/27 07:35:00;;;;;;;17.25;5.75;;;;;;;1.30;80.74;103206.69;5036959;28;20102;-71
2022/02/27 07:37:25;;;;;;;18.05;6.50;;;;;;;1.43;80.19;103218.91;5037046;28;20472;-75
2022/02/27 07:39:50;;;;;;;19.38;6.28;;;;;;;2.86;76.40;103213.03;5037162;28;20029;-75
2022/02/27 07:42:16;;;;;;;23.55;5.35;;;;;;;4.55;68.47;103216.81;5055031;28;20053;-76
2022/02/27 07:44:41;;;;;;;17.30;5.88;;;;;;;5.69;64.30;103198.84;5052468;28;20025;-74
2022/02/27 07:47:07;;;;;;;11.75;5.45;;;;;;;6.52;60.01;103214.13;5039339;28;20433;-75
2022/02/27 07:49:32;;;;;;;17.30;5.50;;;;;;;7.45;58.09;103206.97;5037406;28;20028;-76
2022/02/27 07:51:57;;;;;;;16.65;4.85;;;;;;;7.54;56.81;103214.09;5039091;28;20475;-75
2022/02/27 07:54:23;;;;;;;10.27;4.63;;;;;;;8.04;55.94;103214.00;5060020;28;20036;-75
2022/02/27 07:56:48;;;;;;;13.68;4.90;;;;;;;8.18;53.58;103213.81;5059305;28;20060;-76
2022/02/27 07:59:14;;;;;;;13.45;4.60;;;;;;;7.78;56.07;103221.81;5041063;28;20021;-77
2022/02/27 08:01:40;;;;;;;12.70;4.68;;;;;;;9.83;50.55;103225.38;5057988;28;20502;-76
2022/02/27 08:04:05;;;;;;;15.43;5.25;;;;;;;9.25;51.26;103226.41;5059473;28;20021;-76
2022/02/27 08:06:35;;;;;;;15.00;4.97;;;;;;;9.64;50.53;103226.03;5058735;28;20103;-76
2022/02/27 08:09:03;;;;;;;18.83;5.20;;;;;;;10.24;48.76;103224.66;5057272;28;20021;-76
2022/02/27 08:11:30;;;;;;;10.43;4.57;;;;;;;11.17;46.14;103226.41;5040088;28;20492;-76
2022/02/27 08:13:56;;;;;;;10.63;4.40;;;;;;;11.14;46.25;103231.03;5056501;28;20082;-77
2022/02/27 08:16:21;;;;;;;14.93;4.47;;;;;;;11.14;45.20;103231.84;5037838;28;20480;-77
2022/02/27 08:18:46;;;;;;;11.98;5.10;;;;;;;12.04;44.08;103230.94;5056943;28;20033;-76
2022/02/27 08:21:12;;;;;;;12.55;4.55;;;;;;;11.87;42.76;103213.47;5056414;28;20024;-79
2022/02/27 08:23:39;;;;;;;12.45;4.38;;;;;;;11.50;44.20;103237.38;5056727;28;20099;-76
2022/02/27 08:26:04;;;;;;;13.50;4.13;;;;;;;12.46;42.53;103220.25;5055949;28;20021;-75
2022/02/27 08:28:30;;;;;;;11.00;4.30;;;;;;;11.84;42.86;103227.50;5036979;28;20438;-76
2022/02/27 08:30:56;;;;;;;14.00;4.40;;;;;;;10.70;44.84;103238.97;5040524;28;20032;-77
2022/02/27 08:33:22;;;;;;;14.48;3.95;;;;;;;11.11;44.50;103221.75;5045149;28;20487;-77
2022/02/27 08:35:47;;;;;;;13.48;4.07;;;;;;;12.50;42.03;103237.16;5040141;28;20028;-76
2022/02/27 08:38:12;;;;;;;13.50;3.72;;;;;;;12.72;41.32;103233.44;5055680;28;20100;-76
2022/02/27 08:40:38;;;;;;;14.18;4.68;;;;;;;11.15;42.67;103236.06;5054269;28;20032;-77
2022/02/27 08:43:03;;;;;;;9.48;3.83;;;;;;;11.55;42.13;103235.22;5038381;28;20110;-77
2022/02/27 08:45:29;;;;;;;10.35;4.43;;;;;;;12.38;40.70;103233.09;5038781;28;20476;-78
2022/02/27 08:47:55;;;;;;;11.48;3.65;;;;;;;13.14;39.31;103237.38;5037797;28;20476;-78
2022/02/27 08:50:21;;;;;;;11.85;4.00;;;;;;;14.10;39.54;103233.34;5055881;28;20043;-75
2022/02/27 08:52:46;;;;;;;11.05;4.13;;;;;;;13.59;39.11;103229.63;5055472;28;20032;-76
2022/02/27 08:55:15;;;;;;;9.40;3.95;;;;;;;14.99;36.17;103229.69;5037184;28;20024;-76
2022/02/27 08:57:41;;;;;;;12.90;4.00;;;;;;;13.51;38.20;103238.16;5054634;28;20025;-76
2022/02/27 09:00:09;;;;;;;12.55;4.25;;;;;;;14.33;36.88;103228.47;5054291;28;20087;-72
2022/02/27 09:02:35;;;;;;;12.02;3.97;;;;;;;14.82;35.64;103223.59;5036506;28;20021;-71
2022/02/27 09:05:01;;;;;;;10.38;3.75;;;;;;;13.84;37.05;103238.50;5037352;28;20041;-71
2022/02/27 09:07:26;;;;;;;11.45;4.50;;;;;;;13.85;36.06;103226.31;5035439;28;20582;-70
2022/02/27 09:09:52;;;;;;;10.77;3.67;;;;;;;13.40;36.98;103233.16;5035360;28;20476;-71
2022/02/27 09:12:17;;;;;;;8.43;3.80;;;;;;;13.91;36.65;103233.50;5034691;28;20090;-71
2022/02/27 09:14:45;;;;;;;12.88;4.30;;;;;;;16.17;33.61;103233.00;5053048;28;20025;-72
2022/02/27 09:17:10;;;;;;;9.75;3.80;;;;;;;15.07;35.38;103219.28;5033393;28;20025;-72
2022/02/27 09:19:36;;;;;;;13.60;4.53;;;;;;;16.38;33.60;103226.47;5051183;28;20491;-72
2022/02/27 09:22:01;;;;;;;11.68;3.85;;;;;;;16.92;32.04;103226.66;5051211;28;20028;-72
2022/02/27 09:24:26;;;;;;;15.30;4.15;;;;;;;16.50;32.38;103226.94;5033223;28;20396;-73
2022/02/27 09:26:52;;;;;;;10.85;4.18;;;;;;;17.36;31.20;103240.00;5051297;28;20036;-72
2022/02/27 09:29:17;;;;;;;9.25;3.80;;;;;;;16.76;32.26;103237.97;5052540;28;20398;-71
2022/02/27 09:31:42;;;;;;;11.38;3.95;;;;;;;17.20;31.56;103236.66;5035695;28;20519;-71
2022/02/27 09:34:08;;;;;;;10.23;3.97;;;;;;;17.92;29.87;103223.28;5034913;28;20031;-73
2022/02/27 09:36:35;;;;;;;8.85;3.80;;;;;;;16.69;30.94;103227.38;5053065;28;20025;-72
2022/02/27 09:39:00;;;;;;;9.55;3.55;;;;;;;15.38;32.73;103213.53;5034900;28;20037;-71
2022/02/27 09:41:26;;;;;;;10.90;4.20;;;;;;;16.89;31.31;103229.63;5053030;28;20032;-70
2022/02/27 09:43:59;;;;;;;11.45;3.72;;;;;;;17.80;29.93;103231.53;5036202;28;20021;-73
2022/02/27 09:46:27;;;;;;;8.73;3.78;;;;;;;17.97;29.25;103228.81;5053172;28;20025;-71
2022/02/27 09:48:53;;;;;;;10.15;3.88;;;;;;;16.07;31.14;103214.09;5037863;28;20049;-74
2022/02/27 09:51:18;;;;;;;7.82;3.58;;;;;;;16.60;29.84;103191.84;5051728;28;20032;-71
2022/02/27 09:53:44;;;;;;;10.95;3.58;;;;;;;16.99;28.51;103204.09;5036682;28;20025;-72
2022/02/27 09:56:10;;;;;;;9.27;3.58;;;;;;;15.79;31.16;103192.75;5033021;28;20563;-71
2022/02/27 09:58:36;;;;;;;7.40;3.25;;;;;;;18.10;27.18;103187.16;5054244;28;20039;-72
2022/02/27 10:01:01;;;;;;;8.27;3.08;;;;;;;18.84;26.05;103178.50;5035321;28;20503;-71
2022/02/27 10:03:29;;;;;;;8.50;3.35;;;;;;;19.35;25.20;103166.13;5037020;28;20028;-72
2022/02/27 10:06:01;;;;;;;6.95;2.83;;;;;;;16.94;27.68;103176.84;5055740;28;20132;-74
2022/02/27 10:08:44;;;;;;;6.93;2.67;;;;;;;17.01;27.41;103177.81;5039274;28;20029;-72
2022/02/27 10:11:13;;;;;;;8.57;3.05;;;;;;;16.28;29.15;103187.50;5040719;28;20502;-73
2022/02/27 10:13:42;;;;;;;8.13;2.90;;;;;;;14.65;30.93;103180.25;5037637;28;20297;-72
2022/02/27 10:16:07;;;;;;;11.10;3.20;;;;;;;15.24;30.66;103169.84;5036746;28;20025;-73
2022/02/27 10:19:00;;;;;;;8.30;3.07;;;;;;;16.12;29.24;103164.88;5037147;28;20392;-73
2022/02/27 10:21:26;;;;;;;8.75;2.97;;;;;;;16.05;28.89;103174.31;5054345;28;20291;-74
2022/02/27 10:24:04;;;;;;;7.60;2.88;;;;;;;16.47;28.34;103168.03;5054481;28;20032;-73
2022/02/27 10:26:32;;;;;;;9.52;3.97;;;;;;;16.12;29.76;103169.28;5056245;28;20028;-71
2022/02/27 10:29:09;;;;;;;10.95;3.30;;;;;;;15.77;29.97;103166.84;5061500;28;20029;-70
2022/02/27 10:31:40;;;;;;;8.90;3.50;;;;;;;16.05;29.13;103158.66;5056361;28;20025;-70
2022/02/27 10:34:22;;;;;;;7.40;3.40;;;;;;;17.89;27.60;103169.53;5056082;28;20021;-72
2022/02/27 10:37:05;;;;;;;8.68;3.15;;;;;;;15.60;29.83;103167.81;5056341;28;20036;-71
2022/02/27 10:39:46;;;;;;;11.23;3.25;;;;;;;15.83;29.63;103165.38;5038089;28;20071;-71
2022/02/27 10:42:25;;;;;;;7.10;3.63;;;;;;;14.91;31.06;103161.97;5038449;28;20033;-69
2022/02/27 10:45:03;;;;;;;8.02;3.53;;;;;;;15.72;29.83;103168.31;5038798;28;20490;-70
2022/02/27 10:47:37;;;;;;;10.35;3.17;;;;;;;13.00;34.25;103197.94;5063733;28;20088;-72
2022/02/27 10:50:08;;;;;;;10.32;3.38;;;;;;;13.03;34.92;103153.53;5064672;28;20084;-73
2022/02/27 10:52:34;;;;;;;9.82;3.17;;;;;;;11.46;38.08;103148.00;5063728;28;20024;-72
2022/02/27 10:55:04;;;;;;;7.13;3.35;;;;;;;10.83;39.01;103140.50;5065825;28;20032;-74
2022/02/27 10:57:50;;;;;;;11.65;3.65;;;;;;;10.87;39.43;103144.44;5064834;28;20025;-73
2022/02/27 11:00:19;;;;;;;7.75;3.47;;;;;;;10.57;39.88;103148.69;5063413;28;20025;-73
2022/02/27 11:03:07;;;;;;;8.55;3.65;;;;;;;9.93;41.47;103147.03;5063724;28;20099;-72
2022/02/27 11:05:38;;;;;;;10.65;3.53;;;;;;;10.33;40.99;103138.63;5043836;28;20051;-73
2022/02/27 11:08:10;;;;;;;6.60;3.28;;;;;;;10.26;40.08;103126.31;5061861;28;20029;-73
2022/02/27 11:10:37;;;;;;;8.55;3.40;;;;;;;10.15;39.90;103129.78;5039767;28;20045;-71
2022/02/27 11:13:06;;;;;;;8.65;3.30;;;;;;;9.80;41.55;103133.47;5057658;28;20029;-71
2022/02/27 11:15:31;;;;;;;11.65;4.35;;;;;;;10.07;40.64;103119.25;5056658;28;20048;-71
2022/02/27 11:17:57;;;;;;;8.27;3.40;;;;;;;10.00;40.12;103134.44;5060553;28;20040;-71
2022/02/27 11:20:24;;;;;;;9.80;3.60;;;;;;;10.02;40.69;103136.91;5056618;28;20024;-71